createdAt,value
2019-02-28T00:01:35.418Z,7.40
2019-02-28T00:04:06.871Z,7.40
2019-02-28T00:06:37.225Z,7.40
2019-02-28T00:09:11.536Z,7.40
2019-02-28T00:11:42.198Z,7.40
2019-02-28T00:14:12.572Z,7.40
2019-02-28T00:16:42.843Z,7.40
2019-02-28T00:19:13.086Z,7.30
2019-02-28T00:21:44.018Z,7.30
2019-02-28T00:24:14.282Z,7.30
2019-02-28T00:26:47.531Z,7.30
2019-02-28T00:29:16.518Z,7.30
2019-02-28T00:31:49.469Z,7.30
2019-02-28T00:34:18.706Z,7.30
2019-02-28T00:36:50.391Z,7.30
2019-02-28T00:39:21.074Z,7.30
2019-02-28T00:41:51.479Z,7.30
2019-02-28T00:44:21.713Z,7.30
2019-02-28T00:46:52.018Z,7.30
2019-02-28T00:49:24.458Z,7.20
2019-02-28T00:51:54.940Z,7.30
2019-02-28T00:54:25.468Z,7.30
2019-02-28T00:56:55.689Z,7.40
2019-02-28T00:59:25.996Z,7.40
2019-02-28T01:01:56.408Z,7.30
2019-02-28T01:04:30.037Z,7.40
2019-02-28T01:06:58.675Z,7.30
2019-02-28T01:09:30.232Z,7.30
2019-02-28T01:12:01.217Z,7.30
2019-02-28T01:14:32.449Z,7.30
2019-02-28T01:17:03.929Z,7.30
2019-02-28T01:19:34.227Z,7.30
2019-02-28T01:22:05.593Z,7.30
2019-02-28T01:24:35.821Z,7.30
2019-02-28T01:27:06.079Z,7.30
2019-02-28T01:29:36.426Z,7.20
2019-02-28T01:32:06.907Z,7.20
2019-02-28T01:34:37.155Z,7.20
2019-02-28T01:37:07.645Z,7.20
2019-02-28T01:39:37.958Z,7.20
2019-02-28T01:42:08.267Z,7.20
2019-02-28T01:44:38.663Z,7.20
2019-02-28T01:47:09.055Z,7.10
2019-02-28T01:49:39.316Z,7.10
2019-02-28T01:52:10.627Z,7.10
2019-02-28T01:54:41.043Z,7.10
2019-02-28T01:57:11.383Z,7.10
2019-02-28T01:59:41.626Z,7.10
2019-02-28T02:02:11.971Z,7.10
2019-02-28T02:04:43.238Z,7.10
2019-02-28T02:07:14.187Z,7.00
2019-02-28T02:09:46.258Z,7.10
2019-02-28T02:12:16.663Z,7.00
2019-02-28T02:14:47.051Z,7.00
2019-02-28T02:17:17.343Z,7.00
2019-02-28T02:19:49.359Z,7.00
2019-02-28T02:22:19.846Z,7.00
2019-02-28T02:24:51.188Z,7.10
2019-02-28T02:27:21.539Z,7.10
2019-02-28T02:29:51.822Z,7.10
2019-02-28T02:32:22.112Z,7.00
2019-02-28T02:34:52.363Z,7.00
2019-02-28T02:37:26.457Z,7.00
2019-02-28T02:39:54.614Z,7.00
2019-02-28T02:42:25.256Z,6.90
2019-02-28T02:44:55.483Z,6.90
2019-02-28T02:47:31.318Z,6.90
2019-02-28T02:49:57.960Z,6.90
2019-02-28T02:52:30.397Z,6.90
2019-02-28T02:55:00.329Z,6.90
2019-02-28T02:57:30.675Z,6.80
2019-02-28T03:00:02.301Z,6.90
2019-02-28T03:02:33.350Z,6.90
2019-02-28T03:05:04.837Z,6.90
2019-02-28T03:07:35.235Z,6.80
2019-02-28T03:10:05.987Z,6.90
2019-02-28T03:12:36.289Z,6.90
2019-02-28T03:15:07.304Z,6.90
2019-02-28T03:17:37.608Z,6.80
2019-02-28T03:20:09.032Z,6.80
2019-02-28T03:22:39.334Z,6.80
2019-02-28T03:25:10.648Z,6.80
2019-02-28T03:27:40.897Z,6.80
2019-02-28T03:30:25.773Z,6.80
2019-02-28T03:32:45.976Z,6.80
2019-02-28T03:35:16.437Z,6.80
2019-02-28T03:37:46.603Z,6.80
2019-02-28T03:40:16.864Z,6.80
2019-02-28T03:42:47.071Z,6.80
2019-02-28T03:45:18.119Z,6.80
2019-02-28T03:47:48.380Z,6.80
2019-02-28T03:50:21.961Z,6.80
2019-02-28T03:52:50.829Z,6.80
2019-02-28T03:55:21.574Z,6.80
2019-02-28T03:57:51.882Z,6.80
2019-02-28T04:00:22.091Z,6.80
2019-02-28T04:02:58.742Z,6.70
2019-02-28T04:05:28.129Z,6.80
2019-02-28T04:07:56.459Z,6.70
2019-02-28T04:10:26.876Z,6.60
2019-02-28T04:12:57.519Z,6.60
2019-02-28T04:15:27.804Z,6.50
2019-02-28T04:17:58.330Z,6.50
2019-02-28T04:20:36.141Z,6.40
2019-02-28T04:23:00.527Z,6.40
2019-02-28T04:25:30.814Z,6.40
2019-02-28T04:28:01.055Z,6.30
2019-02-28T04:30:34.601Z,6.30
2019-02-28T04:33:04.880Z,6.30
2019-02-28T04:35:35.312Z,6.30
2019-02-28T04:38:05.550Z,6.30
2019-02-28T04:40:36.007Z,6.20
2019-02-28T04:43:07.241Z,6.30
2019-02-28T04:45:38.186Z,6.20
2019-02-28T04:48:13.351Z,6.20
2019-02-28T04:50:40.677Z,6.10
2019-02-28T04:53:10.931Z,6.10
2019-02-28T04:55:41.417Z,6.00
2019-02-28T04:58:11.630Z,6.00
2019-02-28T05:00:42.009Z,6.00
2019-02-28T05:03:12.265Z,6.00
2019-02-28T05:05:46.382Z,5.90
2019-02-28T05:08:14.559Z,5.90
2019-02-28T05:10:46.021Z,5.90
2019-02-28T05:13:16.371Z,5.90
2019-02-28T05:15:46.725Z,5.90
2019-02-28T05:18:17.181Z,5.90
2019-02-28T05:20:48.674Z,5.80
2019-02-28T05:23:19.121Z,5.90
2019-02-28T05:25:52.075Z,5.90
2019-02-28T05:28:21.865Z,5.80
2019-02-28T05:30:53.758Z,5.80
2019-02-28T05:33:24.167Z,5.80
2019-02-28T05:35:57.255Z,5.90
2019-02-28T05:38:26.406Z,5.90
2019-02-28T05:40:56.697Z,5.80
2019-02-28T05:43:29.206Z,5.80
2019-02-28T05:45:59.468Z,5.80
2019-02-28T05:48:30.205Z,5.80
2019-02-28T05:51:00.411Z,5.90
2019-02-28T05:53:30.600Z,5.80
2019-02-28T05:56:01.251Z,5.90
2019-02-28T05:58:31.512Z,5.90
2019-02-28T06:01:01.947Z,6.00
2019-02-28T06:03:32.210Z,6.00
2019-02-28T06:06:03.020Z,6.00
2019-02-28T06:08:35.550Z,6.00
2019-02-28T06:11:05.916Z,6.10
2019-02-28T06:13:37.082Z,6.00
2019-02-28T06:16:11.305Z,6.00
2019-02-28T06:18:39.426Z,6.10
2019-02-28T06:21:10.263Z,6.20
2019-02-28T06:23:41.622Z,6.30
2019-02-28T06:26:12.038Z,6.30
2019-02-28T06:28:42.530Z,6.50
2019-02-28T06:31:14.411Z,6.70
2019-02-28T06:33:45.906Z,6.70
2019-02-28T06:36:16.183Z,6.80
2019-02-28T06:38:46.595Z,6.90
2019-02-28T06:41:16.710Z,7.10
2019-02-28T06:43:47.127Z,7.30
2019-02-28T06:46:17.392Z,7.40
2019-02-28T06:48:48.178Z,7.50
2019-02-28T06:51:18.446Z,7.50
2019-02-28T06:53:48.902Z,7.70
2019-02-28T06:56:22.190Z,7.70
2019-02-28T06:58:51.490Z,7.70
2019-02-28T07:01:22.861Z,7.70
2019-02-28T07:03:53.822Z,7.90
2019-02-28T07:06:24.100Z,8.10
2019-02-28T07:08:54.520Z,7.80
2019-02-28T07:11:24.856Z,8.00
2019-02-28T07:13:55.395Z,7.90
2019-02-28T07:16:25.689Z,7.90
2019-02-28T07:18:56.645Z,7.90
2019-02-28T07:21:26.920Z,8.00
2019-02-28T07:23:58.261Z,8.30
2019-02-28T07:26:28.543Z,8.80
2019-02-28T07:28:59.003Z,9.20
2019-02-28T07:31:29.303Z,9.60
2019-02-28T07:33:59.566Z,9.80
2019-02-28T07:36:30.050Z,9.70
2019-02-28T07:39:01.311Z,9.60
2019-02-28T07:41:34.074Z,9.40
2019-02-28T07:44:04.522Z,9.40
2019-02-28T07:46:34.872Z,9.50
2019-02-28T07:49:05.306Z,9.50
2019-02-28T07:51:35.975Z,9.40
2019-02-28T07:54:06.250Z,9.50
2019-02-28T07:56:42.740Z,9.60
2019-02-28T07:59:08.976Z,9.90
2019-02-28T08:01:39.282Z,9.80
2019-02-28T08:04:09.575Z,9.90
2019-02-28T08:06:40.504Z,9.90
2019-02-28T08:09:30.754Z,9.90
2019-02-28T08:12:01.045Z,10.10
2019-02-28T08:14:31.658Z,10.60
2019-02-28T08:17:02.046Z,10.70
2019-02-28T08:19:32.738Z,10.40
2019-02-28T08:22:03.146Z,10.30
2019-02-28T08:24:35.838Z,10.50
2019-02-28T08:27:06.324Z,10.40
2019-02-28T08:29:36.624Z,10.20
2019-02-28T08:32:08.160Z,9.90
2019-02-28T08:34:38.474Z,10.30
2019-02-28T08:37:08.808Z,10.30
2019-02-28T08:39:41.226Z,10.20
2019-02-28T08:42:11.447Z,10.30
2019-02-28T08:44:42.890Z,9.60
2019-02-28T08:47:13.425Z,9.80
2019-02-28T08:49:45.514Z,9.60
2019-02-28T08:52:15.542Z,9.20
2019-02-28T08:54:45.785Z,9.00
2019-02-28T08:57:16.081Z,9.10
2019-02-28T08:59:46.378Z,9.70
2019-02-28T09:02:18.323Z,9.20
2019-02-28T09:04:50.863Z,9.00
2019-02-28T09:07:20.963Z,9.10
2019-02-28T09:09:52.538Z,9.20
2019-02-28T09:12:22.818Z,9.20
2019-02-28T09:14:55.363Z,9.40
2019-02-28T09:17:25.320Z,9.30
2019-02-28T09:19:55.901Z,9.40
2019-02-28T09:22:27.348Z,9.40
2019-02-28T09:24:58.305Z,9.60
2019-02-28T09:27:28.571Z,9.60
2019-02-28T09:29:58.733Z,9.60
2019-02-28T09:32:29.090Z,9.80
2019-02-28T09:35:02.557Z,9.80
2019-02-28T09:37:31.243Z,9.70
2019-02-28T09:40:01.541Z,9.50
2019-02-28T09:42:32.114Z,9.60
2019-02-28T09:45:06.757Z,9.80
2019-02-28T09:47:35.375Z,9.90
2019-02-28T09:50:06.460Z,10.00
2019-02-28T09:52:41.250Z,10.00
2019-02-28T09:55:09.161Z,10.20
2019-02-28T09:57:39.459Z,10.10
2019-02-28T10:00:12.748Z,10.20
2019-02-28T10:02:44.050Z,10.10
2019-02-28T10:05:15.231Z,10.30
2019-02-28T10:07:46.027Z,10.30
2019-02-28T10:10:21.027Z,10.40
2019-02-28T10:12:50.263Z,10.40
2019-02-28T10:15:21.159Z,10.50
2019-02-28T10:17:51.960Z,10.60
2019-02-28T10:20:27.110Z,10.80
2019-02-28T10:22:57.014Z,10.90
2019-02-28T10:25:28.458Z,10.50
2019-02-28T10:28:02.546Z,10.60
2019-02-28T10:30:32.551Z,10.30
2019-02-28T10:33:04.320Z,10.50
2019-02-28T10:35:36.947Z,10.70
2019-02-28T10:38:06.378Z,11.20
2019-02-28T10:40:36.628Z,11.10
2019-02-28T10:43:08.219Z,10.90
2019-02-28T10:45:41.978Z,11.20
2019-02-28T10:48:10.659Z,11.30
2019-02-28T10:50:40.902Z,11.00
2019-02-28T10:53:11.624Z,11.20
2019-02-28T10:55:42.306Z,11.10
2019-02-28T10:58:15.414Z,10.90
2019-02-28T11:00:45.002Z,11.10
2019-02-28T11:03:15.824Z,11.70
2019-02-28T11:05:46.991Z,11.40
2019-02-28T11:08:19.292Z,11.60
2019-02-28T11:10:49.727Z,11.70
2019-02-28T11:13:20.110Z,11.50
2019-02-28T11:15:50.592Z,11.80
2019-02-28T11:18:20.870Z,11.60
2019-02-28T11:20:51.322Z,11.50
2019-02-28T11:23:22.968Z,11.60
2019-02-28T11:25:54.175Z,11.40
2019-02-28T11:28:27.920Z,11.10
2019-02-28T11:30:57.138Z,11.20
2019-02-28T11:33:27.675Z,11.20
2019-02-28T11:35:59.322Z,11.00
2019-02-28T11:38:30.746Z,11.10
2019-02-28T11:41:00.966Z,10.90
2019-02-28T11:43:37.213Z,11.00
2019-02-28T11:46:04.297Z,10.70
2019-02-28T11:48:34.610Z,10.70
2019-02-28T11:51:04.898Z,10.70
2019-02-28T11:53:39.282Z,10.90
2019-02-28T11:56:07.118Z,10.90
2019-02-28T11:58:37.400Z,10.70
2019-02-28T12:01:10.473Z,11.00
2019-02-28T12:03:39.575Z,10.90
2019-02-28T12:06:09.807Z,10.40
2019-02-28T12:08:41.567Z,10.50
2019-02-28T12:11:11.924Z,10.70
2019-02-28T12:13:42.191Z,11.00
2019-02-28T12:16:12.470Z,11.10
2019-02-28T12:18:42.631Z,10.90
2019-02-28T12:21:12.900Z,10.90
2019-02-28T12:23:43.189Z,11.00
2019-02-28T12:26:14.395Z,11.00
2019-02-28T12:28:45.565Z,10.90
2019-02-28T12:31:15.808Z,10.80
2019-02-28T12:33:46.491Z,10.90
2019-02-28T12:36:16.806Z,11.00
2019-02-28T12:38:47.244Z,11.00
2019-02-28T12:41:17.527Z,10.90
2019-02-28T12:43:47.865Z,10.80
2019-02-28T12:46:18.205Z,10.50
2019-02-28T12:48:48.941Z,10.50
2019-02-28T12:51:19.679Z,10.50
2019-02-28T12:53:50.035Z,10.60
2019-02-28T12:56:20.655Z,10.60
2019-02-28T12:58:50.980Z,10.60
2019-02-28T13:01:21.673Z,10.80
2019-02-28T13:03:57.733Z,10.60
2019-02-28T13:06:24.821Z,10.70
2019-02-28T13:08:55.489Z,10.80
2019-02-28T13:11:25.795Z,10.90
2019-02-28T13:13:56.108Z,10.80
2019-02-28T13:16:26.739Z,11.00
2019-02-28T13:18:57.267Z,10.90
2019-02-28T13:21:27.783Z,11.10
2019-02-28T13:23:57.955Z,10.80
2019-02-28T13:26:30.562Z,10.80
2019-02-28T13:29:00.704Z,10.70
2019-02-28T13:31:31.002Z,10.80
2019-02-28T13:34:01.267Z,10.80
2019-02-28T13:36:31.908Z,10.90
2019-02-28T13:39:02.107Z,10.80
2019-02-28T13:41:36.653Z,10.90
2019-02-28T13:44:06.905Z,11.00
2019-02-28T13:46:37.388Z,10.80
2019-02-28T13:49:08.469Z,10.70
2019-02-28T13:51:42.084Z,10.40
2019-02-28T13:54:12.158Z,10.30
2019-02-28T13:56:42.415Z,10.40
2019-02-28T13:59:13.094Z,10.30
2019-02-28T14:01:43.483Z,10.20
2019-02-28T14:04:14.146Z,10.30
2019-02-28T14:06:44.376Z,10.40
2019-02-28T14:09:14.699Z,10.30
2019-02-28T14:11:45.881Z,10.30
2019-02-28T14:14:16.876Z,10.50
2019-02-28T14:16:47.167Z,10.60
2019-02-28T14:19:20.450Z,10.50
2019-02-28T14:21:49.782Z,10.40
2019-02-28T14:24:20.248Z,10.40
2019-02-28T14:26:50.591Z,10.60
2019-02-28T14:29:22.188Z,10.70
2019-02-28T14:31:52.555Z,10.40
2019-02-28T14:34:26.199Z,10.40
2019-02-28T14:36:54.738Z,10.40
2019-02-28T14:39:25.103Z,10.30
2019-02-28T14:41:55.304Z,10.30
2019-02-28T14:44:28.031Z,10.40
2019-02-28T14:46:57.464Z,10.40
2019-02-28T14:49:27.974Z,10.40
2019-02-28T14:52:00.402Z,10.50
2019-02-28T14:54:30.664Z,10.60
2019-02-28T14:57:00.928Z,10.50
2019-02-28T14:59:32.018Z,10.40
2019-02-28T15:02:02.378Z,10.40
2019-02-28T15:04:32.716Z,10.30
2019-02-28T15:07:04.142Z,10.30
2019-02-28T15:09:34.693Z,10.40
2019-02-28T15:12:05.104Z,10.30
2019-02-28T15:14:35.430Z,10.40
2019-02-28T15:17:07.555Z,10.20
2019-02-28T15:19:37.874Z,10.20
2019-02-28T15:22:08.137Z,10.10
2019-02-28T15:24:40.600Z,10.10
2019-02-28T15:27:10.268Z,10.10
2019-02-28T15:29:41.355Z,10.10
2019-02-28T15:32:14.238Z,10.10
2019-02-28T15:34:44.824Z,10.10
2019-02-28T15:37:15.074Z,10.00
2019-02-28T15:39:45.356Z,9.90
2019-02-28T15:42:15.682Z,9.90
2019-02-28T15:44:46.074Z,9.90
2019-02-28T15:47:19.437Z,9.80
2019-02-28T15:49:48.200Z,9.80
2019-02-28T15:52:18.528Z,9.80
2019-02-28T15:54:48.796Z,9.80
2019-02-28T15:57:19.104Z,9.80
2019-02-28T15:59:49.750Z,9.70
2019-02-28T16:02:20.982Z,9.60
2019-02-28T16:04:51.298Z,9.60
2019-02-28T16:07:22.678Z,9.50
2019-02-28T16:09:54.098Z,9.50
2019-02-28T16:12:25.280Z,9.40
2019-02-28T16:14:56.659Z,9.40
2019-02-28T16:17:27.135Z,9.30
2019-02-28T16:19:57.389Z,9.30
2019-02-28T16:22:27.702Z,9.30
2019-02-28T16:24:58.166Z,9.30
2019-02-28T16:27:32.280Z,9.20
2019-02-28T16:30:04.034Z,9.20
2019-02-28T16:32:35.027Z,9.20
2019-02-28T16:35:06.018Z,9.10
2019-02-28T16:37:36.754Z,9.10
2019-02-28T16:40:09.300Z,9.00
2019-02-28T16:42:39.914Z,9.00
2019-02-28T16:45:15.275Z,8.90
2019-02-28T16:47:45.866Z,8.80
2019-02-28T16:50:18.770Z,8.80
2019-02-28T16:52:48.512Z,8.80
2019-02-28T16:55:18.803Z,8.70
2019-02-28T16:57:49.829Z,8.70
2019-02-28T17:00:20.086Z,8.60
2019-02-28T17:02:50.581Z,8.60
2019-02-28T17:05:26.476Z,8.60
2019-02-28T17:07:53.537Z,8.60
2019-02-28T17:10:30.172Z,8.50
2019-02-28T17:13:23.122Z,8.40
2019-02-28T17:16:24.687Z,8.40
2019-02-28T17:18:56.823Z,8.40
2019-02-28T17:21:27.103Z,8.30
2019-02-28T17:23:58.804Z,8.30
2019-02-28T17:26:57.627Z,8.20
2019-02-28T17:29:36.084Z,8.20
2019-02-28T17:32:06.393Z,8.20
2019-02-28T17:34:36.711Z,8.10
2019-02-28T17:37:06.974Z,8.10
2019-02-28T17:39:37.311Z,8.10
2019-02-28T17:42:09.120Z,8.00
2019-02-28T17:45:23.627Z,8.00
2019-02-28T17:48:29.085Z,7.90
2019-02-28T17:51:14.921Z,7.90
2019-02-28T17:54:24.044Z,7.80
2019-02-28T17:57:19.197Z,7.80
2019-02-28T18:00:41.361Z,7.70
2019-02-28T18:03:52.730Z,7.60
2019-02-28T18:07:13.656Z,7.50
2019-02-28T18:10:24.230Z,7.50
2019-02-28T18:13:06.317Z,7.50
2019-02-28T18:16:08.855Z,7.40
2019-02-28T18:19:21.516Z,7.40
2019-02-28T18:22:32.686Z,7.30
2019-02-28T18:25:57.048Z,7.30
2019-02-28T18:28:58.026Z,7.20
2019-02-28T18:31:29.732Z,7.10
2019-02-28T18:34:02.987Z,7.10
2019-02-28T18:36:33.436Z,7.00
2019-02-28T18:39:08.169Z,7.00
2019-02-28T18:41:38.971Z,7.00
2019-02-28T18:44:11.510Z,6.90
2019-02-28T18:46:41.780Z,6.90
2019-02-28T18:49:12.226Z,6.80
2019-02-28T18:51:42.522Z,6.80
2019-02-28T18:54:12.924Z,6.80
2019-02-28T18:56:43.286Z,6.70
2019-02-28T18:59:13.717Z,6.70
2019-02-28T19:01:44.183Z,6.60
2019-02-28T19:04:14.598Z,6.60
2019-02-28T19:06:45.120Z,6.60
2019-02-28T19:09:24.168Z,6.50
2019-02-28T19:11:54.739Z,6.40
2019-02-28T19:14:24.990Z,6.50
2019-02-28T19:16:55.327Z,6.40
2019-02-28T19:19:25.635Z,6.50
2019-02-28T19:21:56.342Z,6.50
2019-02-28T19:24:26.912Z,6.60
2019-02-28T19:26:57.224Z,6.60
2019-02-28T19:29:28.038Z,6.50
2019-02-28T19:31:58.464Z,6.50
2019-02-28T19:34:28.988Z,6.50
2019-02-28T19:36:59.286Z,6.40
2019-02-28T19:39:29.555Z,6.50
2019-02-28T19:42:00.295Z,6.50
2019-02-28T19:44:30.643Z,6.50
2019-02-28T19:47:01.013Z,6.50
2019-02-28T19:49:31.525Z,6.50
2019-02-28T19:52:02.020Z,6.40
2019-02-28T19:54:32.748Z,6.30
2019-02-28T19:57:03.079Z,6.30
2019-02-28T19:59:33.435Z,6.20
2019-02-28T20:02:03.934Z,6.20
2019-02-28T20:04:34.222Z,6.30
2019-02-28T20:07:04.728Z,6.20
2019-02-28T20:09:36.381Z,6.20
2019-02-28T20:12:06.720Z,6.20
2019-02-28T20:14:37.460Z,6.10
2019-02-28T20:17:07.760Z,6.10
2019-02-28T20:19:38.140Z,6.10
2019-02-28T20:22:08.642Z,6.20
2019-02-28T20:24:39.418Z,6.20
2019-02-28T20:27:09.828Z,6.20
2019-02-28T20:29:40.193Z,6.10
2019-02-28T20:32:10.450Z,6.10
2019-02-28T20:34:40.786Z,6.10
2019-02-28T20:37:12.527Z,5.90
2019-02-28T20:39:42.817Z,5.90
2019-02-28T20:42:13.141Z,5.90
2019-02-28T20:44:43.431Z,5.80
2019-02-28T20:47:13.783Z,5.90
2019-02-28T20:49:44.053Z,5.80
2019-02-28T20:52:14.506Z,5.70
2019-02-28T20:54:45.648Z,5.70
2019-02-28T20:57:16.460Z,5.70
2019-02-28T20:59:46.658Z,5.70
2019-02-28T21:02:18.769Z,5.70
2019-02-28T21:04:49.010Z,5.60
2019-02-28T21:07:19.494Z,5.60
2019-02-28T21:09:50.143Z,5.50
2019-02-28T21:12:20.581Z,5.50
2019-02-28T21:14:50.841Z,5.40
2019-02-28T21:17:29.196Z,5.30
2019-02-28T21:19:53.143Z,5.20
2019-02-28T21:22:23.900Z,5.30
2019-02-28T21:24:54.229Z,5.20
2019-02-28T21:27:25.152Z,5.10
2019-02-28T21:29:55.850Z,5.20
2019-02-28T21:32:26.665Z,5.10
2019-02-28T21:34:57.271Z,5.10
2019-02-28T21:37:27.433Z,5.00
2019-02-28T21:40:00.746Z,5.00
2019-02-28T21:42:31.186Z,4.90
2019-02-28T21:45:01.506Z,4.90
2019-02-28T21:47:32.455Z,4.90
2019-02-28T21:50:03.389Z,4.80
2019-02-28T21:52:33.959Z,4.80
2019-02-28T21:55:04.835Z,4.70
2019-02-28T21:57:36.718Z,4.70
2019-02-28T22:00:11.207Z,4.70
2019-02-28T22:02:43.147Z,4.70
2019-02-28T22:05:14.631Z,4.60
2019-02-28T22:07:44.892Z,4.60
2019-02-28T22:10:16.517Z,4.60
2019-02-28T22:12:47.939Z,4.60
2019-02-28T22:15:18.686Z,4.50
2019-02-28T22:17:49.026Z,4.50
2019-02-28T22:20:19.366Z,4.40
2019-02-28T22:22:49.740Z,4.40
2019-02-28T22:25:19.991Z,4.30
2019-02-28T22:27:50.552Z,4.30
2019-02-28T22:30:46.384Z,4.30
2019-02-28T22:33:24.677Z,4.20
2019-02-28T22:35:56.912Z,4.10
2019-02-28T22:38:27.464Z,4.00
2019-02-28T22:40:57.759Z,3.90
2019-02-28T22:43:28.315Z,3.90
2019-02-28T22:45:58.601Z,3.80
2019-02-28T22:48:29.184Z,3.80
2019-02-28T22:50:59.459Z,3.80
2019-02-28T22:53:29.713Z,3.80
2019-02-28T22:56:00.198Z,3.80
2019-02-28T22:58:30.368Z,3.70
2019-02-28T23:01:10.455Z,3.70
2019-02-28T23:03:41.209Z,3.70
2019-02-28T23:06:12.273Z,3.70
2019-02-28T23:08:42.552Z,3.70
2019-02-28T23:11:13.480Z,3.70
2019-02-28T23:13:43.710Z,3.60
2019-02-28T23:16:14.652Z,3.60
2019-02-28T23:18:44.898Z,3.60
2019-02-28T23:21:15.363Z,3.50
2019-02-28T23:23:45.666Z,3.40
2019-02-28T23:26:16.294Z,3.40
2019-02-28T23:28:56.489Z,3.40
2019-02-28T23:32:16.989Z,3.30
2019-02-28T23:34:54.878Z,3.20
2019-02-28T23:37:25.162Z,3.20
2019-02-28T23:39:55.406Z,3.10
2019-02-28T23:42:25.866Z,3.10
2019-02-28T23:44:56.174Z,3.10
2019-02-28T23:47:27.535Z,3.10
2019-02-28T23:49:58.053Z,3.00
2019-02-28T23:52:28.597Z,2.90
2019-02-28T23:55:00.032Z,2.80
2019-02-28T23:57:30.590Z,2.70
